sensor_id;sensor_type;location;lat;lon;timestamp;temperature;humidity
66629;DHT22;53532;53.084;6.352;2022-10-31T00:00:48;11.90;99.90
66629;DHT22;53532;53.084;6.352;2022-10-31T00:03:16;11.90;99.90
66629;DHT22;53532;53.084;6.352;2022-10-31T00:05:42;11.80;99.90
66629;DHT22;53532;53.084;6.352;2022-10-31T00:08:08;11.70;99.90
66629;DHT22;53532;53.084;6.352;2022-10-31T00:10:37;11.70;99.90
66629;DHT22;53532;53.084;6.352;2022-10-31T00:13:03;11.60;99.90
66629;DHT22;53532;53.084;6.352;2022-10-31T00:15:29;11.60;99.90
66629;DHT22;53532;53.084;6.352;2022-10-31T00:17:54;11.50;99.90
66629;DHT22;53532;53.084;6.352;2022-10-31T00:20:21;11.50;99.90
66629;DHT22;53532;53.084;6.352;2022-10-31T00:22:47;11.50;99.90
66629;DHT22;53532;53.084;6.352;2022-10-31T00:25:13;11.40;99.90
66629;DHT22;53532;53.084;6.352;2022-10-31T00:27:39;11.40;99.90
66629;DHT22;53532;53.084;6.352;2022-10-31T00:30:05;11.40;99.90
66629;DHT22;53532;53.084;6.352;2022-10-31T00:32:31;11.40;99.90
66629;DHT22;53532;53.084;6.352;2022-10-31T00:34:57;11.40;99.90
66629;DHT22;53532;53.084;6.352;2022-10-31T00:37:24;11.40;99.90
66629;DHT22;53532;53.084;6.352;2022-10-31T00:39:50;11.40;99.90
66629;DHT22;53532;53.084;6.352;2022-10-31T00:42:15;11.30;99.90
66629;DHT22;53532;53.084;6.352;2022-10-31T00:44:41;11.30;99.90
66629;DHT22;53532;53.084;6.352;2022-10-31T00:47:07;11.20;99.90
66629;DHT22;53532;53.084;6.352;2022-10-31T00:49:33;11.20;99.90
66629;DHT22;53532;53.084;6.352;2022-10-31T00:51:59;11.20;99.90
66629;DHT22;53532;53.084;6.352;2022-10-31T00:54:26;11.20;99.90
66629;DHT22;53532;53.084;6.352;2022-10-31T00:56:52;11.20;99.90
66629;DHT22;53532;53.084;6.352;2022-10-31T00:59:18;11.20;99.90
66629;DHT22;53532;53.084;6.352;2022-10-31T01:01:44;11.20;99.90
66629;DHT22;53532;53.084;6.352;2022-10-31T01:04:09;11.20;99.90
66629;DHT22;53532;53.084;6.352;2022-10-31T01:06:35;11.20;99.90
66629;DHT22;53532;53.084;6.352;2022-10-31T01:09:01;11.20;99.90
66629;DHT22;53532;53.084;6.352;2022-10-31T01:11:28;11.30;99.90
66629;DHT22;53532;53.084;6.352;2022-10-31T01:13:54;11.30;99.90
66629;DHT22;53532;53.084;6.352;2022-10-31T01:16:22;11.30;99.90
66629;DHT22;53532;53.084;6.352;2022-10-31T01:18:48;11.30;99.90
66629;DHT22;53532;53.084;6.352;2022-10-31T01:21:16;11.30;99.90
66629;DHT22;53532;53.084;6.352;2022-10-31T01:23:42;11.20;99.90
66629;DHT22;53532;53.084;6.352;2022-10-31T01:26:10;11.20;99.90
66629;DHT22;53532;53.084;6.352;2022-10-31T01:28:40;11.20;99.90
66629;DHT22;53532;53.084;6.352;2022-10-31T01:31:09;11.20;99.90
66629;DHT22;53532;53.084;6.352;2022-10-31T01:33:35;11.20;99.90
66629;DHT22;53532;53.084;6.352;2022-10-31T01:36:01;11.10;99.90
66629;DHT22;53532;53.084;6.352;2022-10-31T01:38:36;11.00;99.90
66629;DHT22;53532;53.084;6.352;2022-10-31T01:41:02;11.10;99.90
66629;DHT22;53532;53.084;6.352;2022-10-31T01:43:47;11.00;99.90
66629;DHT22;53532;53.084;6.352;2022-10-31T01:46:15;11.00;99.90
66629;DHT22;53532;53.084;6.352;2022-10-31T01:48:43;11.00;99.90
66629;DHT22;53532;53.084;6.352;2022-10-31T01:51:10;11.00;99.90
66629;DHT22;53532;53.084;6.352;2022-10-31T01:53:39;11.00;99.90
66629;DHT22;53532;53.084;6.352;2022-10-31T01:56:06;11.00;99.90
66629;DHT22;53532;53.084;6.352;2022-10-31T01:58:32;11.00;99.90
66629;DHT22;53532;53.084;6.352;2022-10-31T02:01:01;11.00;99.90
66629;DHT22;53532;53.084;6.352;2022-10-31T02:03:28;11.00;99.90
66629;DHT22;53532;53.084;6.352;2022-10-31T02:05:55;11.00;99.90
66629;DHT22;53532;53.084;6.352;2022-10-31T02:08:26;11.00;99.90
66629;DHT22;53532;53.084;6.352;2022-10-31T02:10:52;10.90;99.90
66629;DHT22;53532;53.084;6.352;2022-10-31T02:13:19;10.90;99.90
66629;DHT22;53532;53.084;6.352;2022-10-31T02:15:47;10.80;99.90
66629;DHT22;53532;53.084;6.352;2022-10-31T02:18:16;10.80;99.90
66629;DHT22;53532;53.084;6.352;2022-10-31T02:20:50;10.70;99.90
66629;DHT22;53532;53.084;6.352;2022-10-31T02:26:49;10.70;99.90
66629;DHT22;53532;53.084;6.352;2022-10-31T02:32:18;10.60;99.90
66629;DHT22;53532;53.084;6.352;2022-10-31T02:34:52;10.50;99.90
66629;DHT22;53532;53.084;6.352;2022-10-31T02:37:25;10.50;99.90
66629;DHT22;53532;53.084;6.352;2022-10-31T02:39:55;10.50;99.90
